sensor_id;sensor_type;location;lat;lon;timestamp;P1;durP1;ratioP1;P2;durP2;ratioP2
16845;SDS011;8539;53.188;8.696;2022-10-16T00:01:29;8.77;;;2.88;;
16845;SDS011;8539;53.188;8.696;2022-10-16T00:03:58;5.03;;;2.53;;
16845;SDS011;8539;53.188;8.696;2022-10-16T00:06:26;4.05;;;2.60;;
16845;SDS011;8539;53.188;8.696;2022-10-16T00:08:53;3.85;;;2.53;;
16845;SDS011;8539;53.188;8.696;2022-10-16T00:13:48;4.57;;;2.65;;
16845;SDS011;8539;53.188;8.696;2022-10-16T00:16:16;3.78;;;2.60;;
16845;SDS011;8539;53.188;8.696;2022-10-16T00:18:43;5.32;;;2.15;;
16845;SDS011;8539;53.188;8.696;2022-10-16T00:21:13;5.72;;;3.00;;
16845;SDS011;8539;53.188;8.696;2022-10-16T00:23:45;7.22;;;3.20;;
16845;SDS011;8539;53.188;8.696;2022-10-16T00:26:15;5.53;;;2.58;;
16845;SDS011;8539;53.188;8.696;2022-10-16T00:28:44;5.70;;;2.60;;
16845;SDS011;8539;53.188;8.696;2022-10-16T00:31:12;4.53;;;2.63;;
16845;SDS011;8539;53.188;8.696;2022-10-16T00:33:39;6.50;;;2.65;;
16845;SDS011;8539;53.188;8.696;2022-10-16T00:36:06;5.28;;;2.20;;
16845;SDS011;8539;53.188;8.696;2022-10-16T00:38:35;4.93;;;2.17;;
16845;SDS011;8539;53.188;8.696;2022-10-16T00:41:01;5.68;;;2.05;;
16845;SDS011;8539;53.188;8.696;2022-10-16T00:46:13;7.75;;;2.75;;
16845;SDS011;8539;53.188;8.696;2022-10-16T00:48:50;4.95;;;2.17;;
16845;SDS011;8539;53.188;8.696;2022-10-16T00:51:37;2.97;;;2.22;;
16845;SDS011;8539;53.188;8.696;2022-10-16T00:54:16;8.27;;;2.25;;
16845;SDS011;8539;53.188;8.696;2022-10-16T00:56:46;9.57;;;2.33;;
16845;SDS011;8539;53.188;8.696;2022-10-16T01:01:47;3.35;;;2.22;;
16845;SDS011;8539;53.188;8.696;2022-10-16T01:04:20;5.68;;;2.05;;
16845;SDS011;8539;53.188;8.696;2022-10-16T01:09:23;4.95;;;2.08;;
16845;SDS011;8539;53.188;8.696;2022-10-16T01:12:09;2.50;;;1.60;;
16845;SDS011;8539;53.188;8.696;2022-10-16T01:14:42;7.60;;;2.85;;
16845;SDS011;8539;53.188;8.696;2022-10-16T01:17:18;5.15;;;2.63;;
16845;SDS011;8539;53.188;8.696;2022-10-16T01:20:14;4.72;;;2.40;;
16845;SDS011;8539;53.188;8.696;2022-10-16T01:26:12;3.33;;;1.50;;
16845;SDS011;8539;53.188;8.696;2022-10-16T01:31:17;9.38;;;2.28;;
16845;SDS011;8539;53.188;8.696;2022-10-16T01:33:59;4.88;;;1.80;;
16845;SDS011;8539;53.188;8.696;2022-10-16T01:36:38;3.70;;;1.63;;
16845;SDS011;8539;53.188;8.696;2022-10-16T01:39:09;6.50;;;2.15;;
16845;SDS011;8539;53.188;8.696;2022-10-16T01:41:38;5.28;;;1.90;;
16845;SDS011;8539;53.188;8.696;2022-10-16T01:46:40;3.60;;;2.17;;
16845;SDS011;8539;53.188;8.696;2022-10-16T01:49:08;5.03;;;2.08;;
16845;SDS011;8539;53.188;8.696;2022-10-16T01:51:37;7.80;;;2.30;;
16845;SDS011;8539;53.188;8.696;2022-10-16T01:54:04;8.30;;;2.33;;
16845;SDS011;8539;53.188;8.696;2022-10-16T01:56:34;6.10;;;2.50;;
16845;SDS011;8539;53.188;8.696;2022-10-16T01:59:08;3.67;;;2.05;;
16845;SDS011;8539;53.188;8.696;2022-10-16T02:01:38;6.18;;;1.98;;
16845;SDS011;8539;53.188;8.696;2022-10-16T02:04:09;3.28;;;2.25;;
16845;SDS011;8539;53.188;8.696;2022-10-16T02:06:47;3.72;;;2.13;;
16845;SDS011;8539;53.188;8.696;2022-10-16T02:09:13;6.43;;;2.97;;
16845;SDS011;8539;53.188;8.696;2022-10-16T02:11:42;6.10;;;2.20;;
16845;SDS011;8539;53.188;8.696;2022-10-16T02:14:09;5.47;;;1.70;;
16845;SDS011;8539;53.188;8.696;2022-10-16T02:16:42;6.80;;;2.05;;
16845;SDS011;8539;53.188;8.696;2022-10-16T02:19:11;3.70;;;2.10;;
16845;SDS011;8539;53.188;8.696;2022-10-16T02:21:58;5.10;;;2.20;;
16845;SDS011;8539;53.188;8.696;2022-10-16T02:24:31;4.70;;;2.15;;
16845;SDS011;8539;53.188;8.696;2022-10-16T02:27:17;7.53;;;2.28;;
16845;SDS011;8539;53.188;8.696;2022-10-16T02:30:14;7.07;;;2.30;;
16845;SDS011;8539;53.188;8.696;2022-10-16T02:35:21;4.20;;;2.30;;
16845;SDS011;8539;53.188;8.696;2022-10-16T02:37:50;3.92;;;2.22;;
16845;SDS011;8539;53.188;8.696;2022-10-16T02:40:17;5.28;;;2.28;;
16845;SDS011;8539;53.188;8.696;2022-10-16T02:42:44;5.80;;;2.22;;
16845;SDS011;8539;53.188;8.696;2022-10-16T02:45:15;2.97;;;1.75;;
16845;SDS011;8539;53.188;8.696;2022-10-16T02:47:41;3.38;;;1.73;;
16845;SDS011;8539;53.188;8.696;2022-10-16T02:50:07;6.80;;;1.88;;
16845;SDS011;8539;53.188;8.696;2022-10-16T02:52:33;3.85;;;2.05;;
16845;SDS011;8539;53.188;8.696;2022-10-16T02:55:00;5.90;;;1.73;;
16845;SDS011;8539;53.188;8.696;2022-10-16T02:57:27;5.85;;;2.00;;
16845;SDS011;8539;53.188;8.696;2022-10-16T02:59:56;4.45;;;2.15;;
16845;SDS011;8539;53.188;8.696;2022-10-16T03:02:22;4.65;;;1.98;;
16845;SDS011;8539;53.188;8.696;2022-10-16T03:04:49;3.47;;;2.60;;
16845;SDS011;8539;53.188;8.696;2022-10-16T03:07:15;6.07;;;2.00;;
16845;SDS011;8539;53.188;8.696;2022-10-16T03:09:42;3.95;;;2.20;;
16845;SDS011;8539;53.188;8.696;2022-10-16T03:12:08;4.72;;;2.08;;
16845;SDS011;8539;53.188;8.696;2022-10-16T03:14:34;5.55;;;2.17;;
16845;SDS011;8539;53.188;8.696;2022-10-16T03:17:01;5.57;;;1.75;;
16845;SDS011;8539;53.188;8.696;2022-10-16T03:19:27;1.80;;;1.45;;
16845;SDS011;8539;53.188;8.696;2022-10-16T03:21:53;7.10;;;2.13;;
16845;SDS011;8539;53.188;8.696;2022-10-16T03:24:19;5.57;;;2.20;;
16845;SDS011;8539;53.188;8.696;2022-10-16T03:26:45;3.70;;;2.47;;
16845;SDS011;8539;53.188;8.696;2022-10-16T03:29:11;7.25;;;1.90;;
16845;SDS011;8539;53.188;8.696;2022-10-16T03:31:38;5.85;;;2.22;;
16845;SDS011;8539;53.188;8.696;2022-10-16T03:34:04;3.97;;;2.25;;
16845;SDS011;8539;53.188;8.696;2022-10-16T03:36:31;4.88;;;2.00;;
16845;SDS011;8539;53.188;8.696;2022-10-16T03:38:57;4.78;;;2.13;;
16845;SDS011;8539;53.188;8.696;2022-10-16T03:41:23;4.25;;;2.15;;
16845;SDS011;8539;53.188;8.696;2022-10-16T03:43:50;8.93;;;2.63;;
16845;SDS011;8539;53.188;8.696;2022-10-16T03:46:16;4.70;;;2.00;;
16845;SDS011;8539;53.188;8.696;2022-10-16T03:48:43;7.60;;;2.85;;
16845;SDS011;8539;53.188;8.696;2022-10-16T03:51:09;10.18;;;2.70;;
16845;SDS011;8539;53.188;8.696;2022-10-16T03:53:36;9.13;;;2.67;;
16845;SDS011;8539;53.188;8.696;2022-10-16T03:56:03;8.50;;;2.90;;
16845;SDS011;8539;53.188;8.696;2022-10-16T03:58:29;7.22;;;2.97;;
16845;SDS011;8539;53.188;8.696;2022-10-16T04:00:56;7.00;;;3.20;;
16845;SDS011;8539;53.188;8.696;2022-10-16T04:03:23;13.35;;;3.90;;
16845;SDS011;8539;53.188;8.696;2022-10-16T04:05:49;4.78;;;3.00;;
16845;SDS011;8539;53.188;8.696;2022-10-16T04:08:15;9.80;;;3.25;;
16845;SDS011;8539;53.188;8.696;2022-10-16T04:10:42;7.03;;;3.67;;
16845;SDS011;8539;53.188;8.696;2022-10-16T04:13:09;8.25;;;3.75;;
16845;SDS011;8539;53.188;8.696;2022-10-16T04:15:35;11.50;;;4.35;;
16845;SDS011;8539;53.188;8.696;2022-10-16T04:18:02;7.43;;;3.83;;
16845;SDS011;8539;53.188;8.696;2022-10-16T04:20:29;7.60;;;4.55;;
16845;SDS011;8539;53.188;8.696;2022-10-16T04:22:55;13.57;;;6.45;;
16845;SDS011;8539;53.188;8.696;2022-10-16T04:25:21;6.88;;;4.13;;
16845;SDS011;8539;53.188;8.696;2022-10-16T04:27:47;8.98;;;4.43;;
16845;SDS011;8539;53.188;8.696;2022-10-16T04:30:14;6.22;;;4.85;;
16845;SDS011;8539;53.188;8.696;2022-10-16T04:32:48;8.32;;;4.63;;
16845;SDS011;8539;53.188;8.696;2022-10-16T04:35:16;5.72;;;4.47;;
16845;SDS011;8539;53.188;8.696;2022-10-16T04:37:45;8.82;;;4.68;;
16845;SDS011;8539;53.188;8.696;2022-10-16T04:40:17;7.57;;;4.97;;
16845;SDS011;8539;53.188;8.696;2022-10-16T04:42:58;8.02;;;5.40;;
16845;SDS011;8539;53.188;8.696;2022-10-16T04:45:25;11.05;;;5.45;;
16845;SDS011;8539;53.188;8.696;2022-10-16T04:47:58;8.02;;;5.55;;
16845;SDS011;8539;53.188;8.696;2022-10-16T04:50:25;9.13;;;5.72;;
16845;SDS011;8539;53.188;8.696;2022-10-16T04:52:52;11.35;;;5.60;;
16845;SDS011;8539;53.188;8.696;2022-10-16T04:55:19;9.18;;;5.97;;
16845;SDS011;8539;53.188;8.696;2022-10-16T04:57:45;11.90;;;6.35;;
16845;SDS011;8539;53.188;8.696;2022-10-16T05:00:12;6.00;;;5.18;;
16845;SDS011;8539;53.188;8.696;2022-10-16T05:02:50;12.82;;;6.60;;
16845;SDS011;8539;53.188;8.696;2022-10-16T05:05:17;9.80;;;6.30;;
16845;SDS011;8539;53.188;8.696;2022-10-16T05:07:48;11.57;;;6.65;;
16845;SDS011;8539;53.188;8.696;2022-10-16T05:10:15;11.23;;;5.25;;
16845;SDS011;8539;53.188;8.696;2022-10-16T05:12:51;11.68;;;6.47;;
16845;SDS011;8539;53.188;8.696;2022-10-16T05:15:17;7.78;;;5.95;;
16845;SDS011;8539;53.188;8.696;2022-10-16T05:17:44;12.95;;;6.50;;
16845;SDS011;8539;53.188;8.696;2022-10-16T05:20:11;7.72;;;6.93;;
16845;SDS011;8539;53.188;8.696;2022-10-16T05:22:38;17.90;;;6.72;;
16845;SDS011;8539;53.188;8.696;2022-10-16T05:25:05;13.38;;;6.78;;
16845;SDS011;8539;53.188;8.696;2022-10-16T05:27:32;10.55;;;7.93;;
16845;SDS011;8539;53.188;8.696;2022-10-16T05:29:58;11.60;;;7.60;;
16845;SDS011;8539;53.188;8.696;2022-10-16T05:32:25;11.43;;;7.53;;
16845;SDS011;8539;53.188;8.696;2022-10-16T05:34:51;13.77;;;8.10;;
16845;SDS011;8539;53.188;8.696;2022-10-16T05:37:19;8.63;;;7.25;;
16845;SDS011;8539;53.188;8.696;2022-10-16T05:39:45;10.85;;;8.32;;
16845;SDS011;8539;53.188;8.696;2022-10-16T05:42:12;15.02;;;9.25;;
16845;SDS011;8539;53.188;8.696;2022-10-16T05:44:38;13.45;;;8.88;;
16845;SDS011;8539;53.188;8.696;2022-10-16T05:47:05;16.10;;;9.73;;
16845;SDS011;8539;53.188;8.696;2022-10-16T05:49:33;16.02;;;9.43;;
16845;SDS011;8539;53.188;8.696;2022-10-16T05:52:00;10.88;;;8.23;;
16845;SDS011;8539;53.188;8.696;2022-10-16T05:54:26;16.05;;;9.73;;
16845;SDS011;8539;53.188;8.696;2022-10-16T05:56:53;13.73;;;8.63;;
16845;SDS011;8539;53.188;8.696;2022-10-16T05:59:19;12.57;;;8.27;;
16845;SDS011;8539;53.188;8.696;2022-10-16T06:01:45;13.65;;;8.35;;
16845;SDS011;8539;53.188;8.696;2022-10-16T06:04:12;14.30;;;9.05;;
16845;SDS011;8539;53.188;8.696;2022-10-16T06:06:38;16.30;;;9.75;;
16845;SDS011;8539;53.188;8.696;2022-10-16T06:09:04;15.23;;;9.27;;
16845;SDS011;8539;53.188;8.696;2022-10-16T06:11:31;12.68;;;8.60;;
16845;SDS011;8539;53.188;8.696;2022-10-16T06:14:00;11.75;;;8.88;;
16845;SDS011;8539;53.188;8.696;2022-10-16T06:16:28;12.43;;;9.95;;
16845;SDS011;8539;53.188;8.696;2022-10-16T06:18:55;13.27;;;9.82;;
16845;SDS011;8539;53.188;8.696;2022-10-16T06:21:23;13.50;;;8.43;;
16845;SDS011;8539;53.188;8.696;2022-10-16T06:23:53;15.20;;;9.27;;
16845;SDS011;8539;53.188;8.696;2022-10-16T06:26:22;12.07;;;9.15;;
16845;SDS011;8539;53.188;8.696;2022-10-16T06:28:51;13.10;;;8.45;;
16845;SDS011;8539;53.188;8.696;2022-10-16T06:31:19;10.73;;;8.38;;
16845;SDS011;8539;53.188;8.696;2022-10-16T06:33:49;10.93;;;8.00;;
16845;SDS011;8539;53.188;8.696;2022-10-16T06:36:17;20.45;;;9.75;;
16845;SDS011;8539;53.188;8.696;2022-10-16T06:38:43;12.48;;;8.90;;
16845;SDS011;8539;53.188;8.696;2022-10-16T06:41:11;12.38;;;8.93;;
16845;SDS011;8539;53.188;8.696;2022-10-16T06:43:42;11.52;;;8.43;;
16845;SDS011;8539;53.188;8.696;2022-10-16T06:46:10;14.45;;;9.43;;
16845;SDS011;8539;53.188;8.696;2022-10-16T06:48:38;13.82;;;8.68;;
16845;SDS011;8539;53.188;8.696;2022-10-16T06:51:09;15.93;;;8.77;;
16845;SDS011;8539;53.188;8.696;2022-10-16T06:53:37;17.58;;;8.70;;
16845;SDS011;8539;53.188;8.696;2022-10-16T06:56:12;14.85;;;9.23;;
16845;SDS011;8539;53.188;8.696;2022-10-16T06:58:49;13.23;;;9.25;;
16845;SDS011;8539;53.188;8.696;2022-10-16T07:01:19;11.45;;;8.40;;
16845;SDS011;8539;53.188;8.696;2022-10-16T07:03:46;15.73;;;8.50;;
16845;SDS011;8539;53.188;8.696;2022-10-16T07:06:14;11.50;;;7.75;;
16845;SDS011;8539;53.188;8.696;2022-10-16T07:08:44;11.65;;;8.20;;
16845;SDS011;8539;53.188;8.696;2022-10-16T07:11:12;11.32;;;7.90;;
16845;SDS011;8539;53.188;8.696;2022-10-16T07:13:40;13.35;;;7.43;;
16845;SDS011;8539;53.188;8.696;2022-10-16T07:16:09;12.73;;;7.80;;
16845;SDS011;8539;53.188;8.696;2022-10-16T07:18:37;12.20;;;7.35;;
16845;SDS011;8539;53.188;8.696;2022-10-16T07:21:09;16.20;;;8.45;;
16845;SDS011;8539;53.188;8.696;2022-10-16T07:23:37;14.70;;;8.90;;
16845;SDS011;8539;53.188;8.696;2022-10-16T07:26:04;8.68;;;7.10;;
16845;SDS011;8539;53.188;8.696;2022-10-16T07:28:31;11.18;;;7.80;;
16845;SDS011;8539;53.188;8.696;2022-10-16T07:31:01;9.55;;;7.35;;
16845;SDS011;8539;53.188;8.696;2022-10-16T07:33:33;10.60;;;6.90;;
16845;SDS011;8539;53.188;8.696;2022-10-16T07:36:00;14.30;;;7.43;;
16845;SDS011;8539;53.188;8.696;2022-10-16T07:38:27;8.57;;;6.35;;
16845;SDS011;8539;53.188;8.696;2022-10-16T07:41:00;9.00;;;7.43;;
16845;SDS011;8539;53.188;8.696;2022-10-16T07:43:31;9.95;;;7.15;;
16845;SDS011;8539;53.188;8.696;2022-10-16T07:45:58;11.73;;;7.78;;
16845;SDS011;8539;53.188;8.696;2022-10-16T07:48:26;11.98;;;7.15;;
16845;SDS011;8539;53.188;8.696;2022-10-16T07:50:57;12.77;;;7.93;;
16845;SDS011;8539;53.188;8.696;2022-10-16T07:53:28;10.98;;;7.30;;
16845;SDS011;8539;53.188;8.696;2022-10-16T07:56:02;13.43;;;6.75;;
16845;SDS011;8539;53.188;8.696;2022-10-16T07:58:33;6.80;;;6.07;;
16845;SDS011;8539;53.188;8.696;2022-10-16T08:01:03;12.00;;;7.57;;
16845;SDS011;8539;53.188;8.696;2022-10-16T08:03:32;14.73;;;5.93;;
16845;SDS011;8539;53.188;8.696;2022-10-16T08:06:02;7.72;;;5.93;;
16845;SDS011;8539;53.188;8.696;2022-10-16T08:08:29;11.73;;;5.80;;
16845;SDS011;8539;53.188;8.696;2022-10-16T08:10:56;8.98;;;6.97;;
16845;SDS011;8539;53.188;8.696;2022-10-16T08:13:22;9.00;;;5.53;;
16845;SDS011;8539;53.188;8.696;2022-10-16T08:15:48;10.05;;;5.85;;
16845;SDS011;8539;53.188;8.696;2022-10-16T08:18:15;9.77;;;5.63;;
16845;SDS011;8539;53.188;8.696;2022-10-16T08:20:42;8.63;;;5.28;;
16845;SDS011;8539;53.188;8.696;2022-10-16T08:23:09;7.75;;;5.65;;
16845;SDS011;8539;53.188;8.696;2022-10-16T08:25:37;10.45;;;5.22;;
16845;SDS011;8539;53.188;8.696;2022-10-16T08:28:04;8.85;;;4.30;;
16845;SDS011;8539;53.188;8.696;2022-10-16T08:30:31;7.78;;;4.22;;
16845;SDS011;8539;53.188;8.696;2022-10-16T08:32:57;5.93;;;4.65;;
16845;SDS011;8539;53.188;8.696;2022-10-16T08:35:23;5.13;;;4.15;;
16845;SDS011;8539;53.188;8.696;2022-10-16T08:37:50;7.03;;;4.22;;
16845;SDS011;8539;53.188;8.696;2022-10-16T08:40:27;7.78;;;4.25;;
16845;SDS011;8539;53.188;8.696;2022-10-16T08:46:06;9.93;;;3.42;;
16845;SDS011;8539;53.188;8.696;2022-10-16T08:48:48;5.70;;;3.45;;
16845;SDS011;8539;53.188;8.696;2022-10-16T08:54:05;9.45;;;3.50;;
16845;SDS011;8539;53.188;8.696;2022-10-16T08:56:48;4.80;;;2.55;;
16845;SDS011;8539;53.188;8.696;2022-10-16T08:59:14;8.15;;;3.10;;
16845;SDS011;8539;53.188;8.696;2022-10-16T09:01:46;6.95;;;2.42;;
16845;SDS011;8539;53.188;8.696;2022-10-16T09:04:26;4.93;;;2.80;;
16845;SDS011;8539;53.188;8.696;2022-10-16T09:07:32;4.43;;;2.65;;
16845;SDS011;8539;53.188;8.696;2022-10-16T09:13:31;7.43;;;3.08;;
16845;SDS011;8539;53.188;8.696;2022-10-16T09:18:57;4.75;;;2.45;;
16845;SDS011;8539;53.188;8.696;2022-10-16T09:21:41;3.90;;;1.75;;
16845;SDS011;8539;53.188;8.696;2022-10-16T09:24:19;5.85;;;2.72;;
16845;SDS011;8539;53.188;8.696;2022-10-16T09:26:47;3.55;;;1.77;;
16845;SDS011;8539;53.188;8.696;2022-10-16T09:29:14;4.60;;;1.80;;
16845;SDS011;8539;53.188;8.696;2022-10-16T09:31:50;4.68;;;1.95;;
16845;SDS011;8539;53.188;8.696;2022-10-16T09:34:24;5.75;;;1.80;;
16845;SDS011;8539;53.188;8.696;2022-10-16T09:36:56;2.42;;;1.50;;
16845;SDS011;8539;53.188;8.696;2022-10-16T09:39:25;4.57;;;2.22;;
16845;SDS011;8539;53.188;8.696;2022-10-16T09:41:51;6.88;;;2.17;;
16845;SDS011;8539;53.188;8.696;2022-10-16T09:47:01;5.30;;;1.60;;
16845;SDS011;8539;53.188;8.696;2022-10-16T09:49:37;6.40;;;1.77;;
16845;SDS011;8539;53.188;8.696;2022-10-16T09:52:04;5.65;;;1.70;;
16845;SDS011;8539;53.188;8.696;2022-10-16T09:54:36;2.85;;;2.05;;
16845;SDS011;8539;53.188;8.696;2022-10-16T09:57:06;6.97;;;1.92;;
16845;SDS011;8539;53.188;8.696;2022-10-16T10:02:13;3.63;;;1.80;;
16845;SDS011;8539;53.188;8.696;2022-10-16T10:04:45;11.52;;;2.50;;
16845;SDS011;8539;53.188;8.696;2022-10-16T10:07:21;7.00;;;1.85;;
16845;SDS011;8539;53.188;8.696;2022-10-16T10:09:51;5.63;;;1.73;;
16845;SDS011;8539;53.188;8.696;2022-10-16T10:14:50;5.53;;;1.73;;
16845;SDS011;8539;53.188;8.696;2022-10-16T10:19:52;8.70;;;1.70;;
16845;SDS011;8539;53.188;8.696;2022-10-16T10:22:40;2.45;;;1.20;;
16845;SDS011;8539;53.188;8.696;2022-10-16T10:39:02;4.38;;;1.30;;
16845;SDS011;8539;53.188;8.696;2022-10-16T10:51:01;5.35;;;1.23;;
16845;SDS011;8539;53.188;8.696;2022-10-16T10:53:47;6.75;;;0.80;;
16845;SDS011;8539;53.188;8.696;2022-10-16T10:59:58;8.40;;;1.20;;
16845;SDS011;8539;53.188;8.696;2022-10-16T11:02:41;6.82;;;1.25;;
16845;SDS011;8539;53.188;8.696;2022-10-16T11:11:23;2.50;;;0.95;;
16845;SDS011;8539;53.188;8.696;2022-10-16T11:16:39;2.30;;;0.88;;
16845;SDS011;8539;53.188;8.696;2022-10-16T11:21:54;5.45;;;2.10;;
16845;SDS011;8539;53.188;8.696;2022-10-16T11:24:48;3.53;;;1.15;;
16845;SDS011;8539;53.188;8.696;2022-10-16T11:27:39;2.63;;;1.33;;
16845;SDS011;8539;53.188;8.696;2022-10-16T11:30:33;4.95;;;1.20;;
16845;SDS011;8539;53.188;8.696;2022-10-16T11:33:39;6.78;;;1.35;;
16845;SDS011;8539;53.188;8.696;2022-10-16T11:36:25;3.92;;;1.10;;
16845;SDS011;8539;53.188;8.696;2022-10-16T11:38:59;3.72;;;1.40;;
16845;SDS011;8539;53.188;8.696;2022-10-16T11:41:53;2.13;;;1.13;;
16845;SDS011;8539;53.188;8.696;2022-10-16T11:47:58;4.55;;;1.58;;
16845;SDS011;8539;53.188;8.696;2022-10-16T11:56:27;3.22;;;0.93;;
16845;SDS011;8539;53.188;8.696;2022-10-16T11:59:05;4.35;;;1.67;;
16845;SDS011;8539;53.188;8.696;2022-10-16T12:04:49;8.60;;;1.50;;
16845;SDS011;8539;53.188;8.696;2022-10-16T12:07:27;6.72;;;1.40;;
16845;SDS011;8539;53.188;8.696;2022-10-16T12:10:25;6.78;;;1.55;;
16845;SDS011;8539;53.188;8.696;2022-10-16T12:12:53;4.82;;;1.50;;
16845;SDS011;8539;53.188;8.696;2022-10-16T12:15:30;6.75;;;1.33;;
16845;SDS011;8539;53.188;8.696;2022-10-16T12:18:00;6.72;;;1.40;;
16845;SDS011;8539;53.188;8.696;2022-10-16T12:20:27;6.93;;;1.40;;
16845;SDS011;8539;53.188;8.696;2022-10-16T12:23:19;8.38;;;2.50;;
16845;SDS011;8539;53.188;8.696;2022-10-16T12:25:53;6.10;;;1.15;;
16845;SDS011;8539;53.188;8.696;2022-10-16T12:28:22;6.13;;;1.45;;
16845;SDS011;8539;53.188;8.696;2022-10-16T12:30:57;5.88;;;1.30;;
16845;SDS011;8539;53.188;8.696;2022-10-16T12:33:35;4.68;;;1.35;;
16845;SDS011;8539;53.188;8.696;2022-10-16T12:36:07;7.35;;;2.13;;
16845;SDS011;8539;53.188;8.696;2022-10-16T12:38:50;6.70;;;2.25;;
16845;SDS011;8539;53.188;8.696;2022-10-16T12:41:59;8.80;;;2.42;;
16845;SDS011;8539;53.188;8.696;2022-10-16T12:44:21;4.50;;;1.38;;
16845;SDS011;8539;53.188;8.696;2022-10-16T12:46:49;4.82;;;1.63;;
16845;SDS011;8539;53.188;8.696;2022-10-16T12:49:37;5.05;;;1.30;;
16845;SDS011;8539;53.188;8.696;2022-10-16T12:52:22;6.07;;;1.17;;
16845;SDS011;8539;53.188;8.696;2022-10-16T12:54:55;5.72;;;1.20;;
16845;SDS011;8539;53.188;8.696;2022-10-16T13:05:52;8.93;;;2.00;;
16845;SDS011;8539;53.188;8.696;2022-10-16T13:22:47;4.13;;;1.20;;
16845;SDS011;8539;53.188;8.696;2022-10-16T13:30:26;7.63;;;1.48;;
16845;SDS011;8539;53.188;8.696;2022-10-16T13:33:02;4.88;;;2.05;;
16845;SDS011;8539;53.188;8.696;2022-10-16T13:36:18;5.97;;;1.42;;
16845;SDS011;8539;53.188;8.696;2022-10-16T13:39:29;4.90;;;1.23;;
16845;SDS011;8539;53.188;8.696;2022-10-16T13:44:46;2.88;;;1.17;;
16845;SDS011;8539;53.188;8.696;2022-10-16T13:47:20;5.10;;;1.50;;
16845;SDS011;8539;53.188;8.696;2022-10-16T13:50:01;8.45;;;1.95;;
16845;SDS011;8539;53.188;8.696;2022-10-16T13:52:31;6.63;;;1.85;;
16845;SDS011;8539;53.188;8.696;2022-10-16T13:54:59;6.10;;;1.75;;
16845;SDS011;8539;53.188;8.696;2022-10-16T13:57:26;8.77;;;2.42;;
16845;SDS011;8539;53.188;8.696;2022-10-16T13:59:52;4.38;;;0.90;;
16845;SDS011;8539;53.188;8.696;2022-10-16T14:04:47;6.85;;;2.20;;
16845;SDS011;8539;53.188;8.696;2022-10-16T14:07:17;4.13;;;1.75;;
16845;SDS011;8539;53.188;8.696;2022-10-16T14:09:54;7.50;;;1.90;;
16845;SDS011;8539;53.188;8.696;2022-10-16T14:12:22;7.03;;;2.47;;
16845;SDS011;8539;53.188;8.696;2022-10-16T14:14:50;6.30;;;1.23;;
16845;SDS011;8539;53.188;8.696;2022-10-16T14:17:22;4.18;;;1.60;;
16845;SDS011;8539;53.188;8.696;2022-10-16T14:19:59;4.93;;;1.30;;
16845;SDS011;8539;53.188;8.696;2022-10-16T14:24:56;4.57;;;1.75;;
16845;SDS011;8539;53.188;8.696;2022-10-16T14:27:28;8.27;;;1.38;;
16845;SDS011;8539;53.188;8.696;2022-10-16T14:32:39;3.85;;;2.47;;
16845;SDS011;8539;53.188;8.696;2022-10-16T14:37:54;4.43;;;1.20;;
16845;SDS011;8539;53.188;8.696;2022-10-16T14:40:23;6.68;;;1.35;;
16845;SDS011;8539;53.188;8.696;2022-10-16T14:42:53;3.13;;;1.45;;
16845;SDS011;8539;53.188;8.696;2022-10-16T14:45:20;9.48;;;1.80;;
16845;SDS011;8539;53.188;8.696;2022-10-16T14:47:50;5.35;;;1.70;;
16845;SDS011;8539;53.188;8.696;2022-10-16T14:50:19;4.00;;;1.25;;
16845;SDS011;8539;53.188;8.696;2022-10-16T14:52:45;7.88;;;1.73;;
16845;SDS011;8539;53.188;8.696;2022-10-16T14:55:11;4.78;;;1.42;;
16845;SDS011;8539;53.188;8.696;2022-10-16T14:57:37;5.18;;;1.67;;
16845;SDS011;8539;53.188;8.696;2022-10-16T15:00:25;6.63;;;1.38;;
16845;SDS011;8539;53.188;8.696;2022-10-16T15:02:50;4.60;;;1.45;;
16845;SDS011;8539;53.188;8.696;2022-10-16T15:05:24;10.85;;;1.60;;
16845;SDS011;8539;53.188;8.696;2022-10-16T15:07:52;6.22;;;1.20;;
16845;SDS011;8539;53.188;8.696;2022-10-16T15:10:20;9.45;;;1.35;;
16845;SDS011;8539;53.188;8.696;2022-10-16T15:12:48;10.60;;;1.48;;
16845;SDS011;8539;53.188;8.696;2022-10-16T15:17:53;3.05;;;1.17;;
16845;SDS011;8539;53.188;8.696;2022-10-16T15:20:23;4.00;;;1.70;;
16845;SDS011;8539;53.188;8.696;2022-10-16T15:22:51;9.55;;;1.70;;
16845;SDS011;8539;53.188;8.696;2022-10-16T15:28:07;5.50;;;2.13;;
16845;SDS011;8539;53.188;8.696;2022-10-16T15:30:35;5.25;;;1.60;;
16845;SDS011;8539;53.188;8.696;2022-10-16T15:33:02;10.70;;;2.63;;
16845;SDS011;8539;53.188;8.696;2022-10-16T15:35:29;5.20;;;2.22;;
16845;SDS011;8539;53.188;8.696;2022-10-16T15:41:21;8.30;;;1.88;;
16845;SDS011;8539;53.188;8.696;2022-10-16T15:43:50;6.75;;;2.15;;
16845;SDS011;8539;53.188;8.696;2022-10-16T15:46:57;6.43;;;1.88;;
16845;SDS011;8539;53.188;8.696;2022-10-16T15:49:38;4.55;;;1.45;;
16845;SDS011;8539;53.188;8.696;2022-10-16T15:54:54;7.60;;;1.73;;
16845;SDS011;8539;53.188;8.696;2022-10-16T15:57:44;4.97;;;1.70;;
16845;SDS011;8539;53.188;8.696;2022-10-16T16:00:13;10.00;;;2.00;;
16845;SDS011;8539;53.188;8.696;2022-10-16T16:02:43;7.40;;;2.40;;
16845;SDS011;8539;53.188;8.696;2022-10-16T16:05:14;8.45;;;1.90;;
16845;SDS011;8539;53.188;8.696;2022-10-16T16:07:40;6.35;;;1.65;;
16845;SDS011;8539;53.188;8.696;2022-10-16T16:10:09;8.18;;;2.08;;
16845;SDS011;8539;53.188;8.696;2022-10-16T16:12:36;7.00;;;2.83;;
16845;SDS011;8539;53.188;8.696;2022-10-16T16:15:04;11.50;;;2.30;;
16845;SDS011;8539;53.188;8.696;2022-10-16T16:17:31;6.18;;;1.73;;
16845;SDS011;8539;53.188;8.696;2022-10-16T16:19:58;3.58;;;1.42;;
16845;SDS011;8539;53.188;8.696;2022-10-16T16:22:24;7.07;;;1.85;;
16845;SDS011;8539;53.188;8.696;2022-10-16T16:24:50;5.78;;;1.65;;
16845;SDS011;8539;53.188;8.696;2022-10-16T16:27:16;5.63;;;1.73;;
16845;SDS011;8539;53.188;8.696;2022-10-16T16:29:42;4.18;;;1.83;;
16845;SDS011;8539;53.188;8.696;2022-10-16T16:32:08;7.55;;;2.85;;
16845;SDS011;8539;53.188;8.696;2022-10-16T16:34:34;6.57;;;2.25;;
16845;SDS011;8539;53.188;8.696;2022-10-16T16:37:01;9.32;;;3.15;;
16845;SDS011;8539;53.188;8.696;2022-10-16T16:39:27;7.22;;;2.05;;
16845;SDS011;8539;53.188;8.696;2022-10-16T16:41:54;9.35;;;3.03;;
16845;SDS011;8539;53.188;8.696;2022-10-16T16:44:21;6.03;;;2.15;;
16845;SDS011;8539;53.188;8.696;2022-10-16T16:46:48;12.43;;;2.60;;
16845;SDS011;8539;53.188;8.696;2022-10-16T16:49:14;7.32;;;2.67;;
16845;SDS011;8539;53.188;8.696;2022-10-16T16:51:41;7.93;;;2.17;;
16845;SDS011;8539;53.188;8.696;2022-10-16T16:54:07;11.57;;;3.10;;
16845;SDS011;8539;53.188;8.696;2022-10-16T16:56:35;7.05;;;2.17;;
16845;SDS011;8539;53.188;8.696;2022-10-16T16:59:04;6.30;;;2.30;;
16845;SDS011;8539;53.188;8.696;2022-10-16T17:01:30;6.30;;;2.50;;
16845;SDS011;8539;53.188;8.696;2022-10-16T17:03:57;6.32;;;2.75;;
16845;SDS011;8539;53.188;8.696;2022-10-16T17:06:25;6.20;;;2.30;;
16845;SDS011;8539;53.188;8.696;2022-10-16T17:08:53;8.65;;;3.03;;
16845;SDS011;8539;53.188;8.696;2022-10-16T17:11:20;5.93;;;3.10;;
16845;SDS011;8539;53.188;8.696;2022-10-16T17:13:48;5.57;;;2.75;;
16845;SDS011;8539;53.188;8.696;2022-10-16T17:16:15;4.45;;;3.15;;
16845;SDS011;8539;53.188;8.696;2022-10-16T17:18:42;4.07;;;2.85;;
16845;SDS011;8539;53.188;8.696;2022-10-16T17:21:08;8.98;;;3.10;;
16845;SDS011;8539;53.188;8.696;2022-10-16T17:23:36;6.78;;;3.17;;
16845;SDS011;8539;53.188;8.696;2022-10-16T17:26:07;12.15;;;3.78;;
16845;SDS011;8539;53.188;8.696;2022-10-16T17:28:42;9.65;;;3.88;;
16845;SDS011;8539;53.188;8.696;2022-10-16T17:31:13;6.78;;;3.70;;
16845;SDS011;8539;53.188;8.696;2022-10-16T17:33:41;11.35;;;4.30;;
16845;SDS011;8539;53.188;8.696;2022-10-16T17:36:08;10.63;;;3.70;;
16845;SDS011;8539;53.188;8.696;2022-10-16T17:38:36;8.43;;;2.80;;
16845;SDS011;8539;53.188;8.696;2022-10-16T17:41:09;10.60;;;4.18;;
16845;SDS011;8539;53.188;8.696;2022-10-16T17:43:37;7.57;;;3.70;;
16845;SDS011;8539;53.188;8.696;2022-10-16T17:46:04;7.00;;;3.15;;
16845;SDS011;8539;53.188;8.696;2022-10-16T17:48:35;8.85;;;3.85;;